עמוד ראשי
METAR-TAF:

METAR-TAF

שדות תעופה :

אסדת קידוח

Troll A, נורבגיה

קו רוחב: 60-38-42N, קו אורך: 3-43-29E, גובה: 20מטר

תצפית מזג אוויר נוכחית

הדו"ח נערך לפני 44דקות, בשעה 23:20 UTC
רוח 13קשר מכיוון צפון
טמפרטורת 10 צלסיוס
לחות 87%
לחץ 1016 hPa
ראות 10 קילומטר או יותר

METAR: ENQA 182320Z AUTO 35013KT 9999 BKN006/// BKN059/// 10/08 Q1016 W/////

זמן: 02:04 (00:04 UTC)


TAF: חסר

תצפיות ותחזיות מזג אוויר לגבי יותר מ- 4,000 שדות תעופה ברחבי העולם. דוחות METAR ו- TAF.

התחנות הזמינות מסומנות בנקודות צהובות ואדומות על גבי המפה.

העבר את העכבר לנקודה הצבעונית על מנת לראות את שם התחנה.

לאחר מכן, לחץ כדי לראות את תוכן ואת תחזיות מזג האוויר.

כדי לשנות את המפה: לחץ על הכפתורים הירוקים עם הפלוס השחור כדי להתקרב; על הכפתור הירוק עם המקף כדי להתרחק; או בחיצים הירוקים למפות סמוכות.


METAR-TAF: